RSL - Russell Muni

Pirep is a free, collaborative database of all public and private airports located within the United States. All pilots are welcome to contribute, edit, and improve any airport they have local knowledge about, no registration required.
Are you familiar with this airport? Help out other pilots by adding your local knowledge.
Uploaded photos will be licensed under a CC BY-SA 4.0 license. Please only upload photos you have the rights to use.
Tags
Public
Undocu­mented
METAR / TAF
Edit Tags
Food
Camping
Lodging
Car Rental
Bicycles
Swimming
Golfing
Fishing
Hot Springs
Museum
Flying Clubs
Airpark
Upcoming Events
No upcoming events. Is anything happening here soon?
*
*
*

Where exactly on/near the airport is this event taking place?

Is there a webpage with more information for this event?

Who should be contacted for more information?

What is this event all about?

Repeat every
Description
Transient Parking
Fuel Location
Landing & Tie-down Fees
Crew Car Availability
Flying Clubs
WiFi Access
Airport Statistics
Location: Russell, KS
Elevation: 1,863ft
Sectional: Wichita
Activation date: Jun 1945
Fuel: 100LL (prices)
Runway 17/35: 5,000ft
Runway 03/21: 1,602ft
Access: Open to the public
Current Weather — VFR
  • Weather data is strictly informational and not for flight planning purposes.
  • METAR
    2024-06-17 21:53:00 CDT
    Ceiling Wind Temperature Dewpoint Weather Visbility
    Sky clear 160° @ 25kt, gusts 34kt 84°F 66°F Light rain 10SM
    Raw: KRSL 180253Z AUTO 16025G34KT 10SM -RA CLR 29/19 A2962 RMK AO2 PK WND 16040/0154 SLP005 P0000 60000 T02890189 53011
  • TAF
    2024-06-17 19:00:00 CDT – 2024-06-18 01:00:00 CDT
    Ceiling Wind Weather Visbility
    Sky clear 170° @ 27kt, gusts 40kt N/A 6SM
    Clouds: Scattered @ 4,000ft
    Raw: KRSL 172327Z 1800/1824 17027G40KT P6SM SCT040 FM180600 18025G37KT P6SM SKC WS020/18050KT FM181300 19026G36KT P6SM SCT080
  • TAF
    2024-06-18 01:00:00 CDT – 2024-06-18 08:00:00 CDT
    Ceiling Wind Weather Visbility
    Sky clear 180° @ 25kt, gusts 37kt N/A 6SM
    Clouds: @ ft
    Raw: KRSL 172327Z 1800/1824 17027G40KT P6SM SCT040 FM180600 18025G37KT P6SM SKC WS020/18050KT FM181300 19026G36KT P6SM SCT080
  • TAF
    2024-06-18 08:00:00 CDT – 2024-06-18 19:00:00 CDT
    Ceiling Wind Weather Visbility
    Sky clear 190° @ 26kt, gusts 36kt N/A 6SM
    Clouds: Scattered @ 8,000ft
    Raw: KRSL 172327Z 1800/1824 17027G40KT P6SM SCT040 FM180600 18025G37KT P6SM SKC WS020/18050KT FM181300 19026G36KT P6SM SCT080
Click/tap to add an annotation marker to the map
Airport Webcams
No webcams added yet.
Direct links to live image URLs will be displayed inline on this page. URLs to separate webpages will be linked to.
URL:
Direct links to live image URLs will be displayed inline on this page. URLs to separate webpages will be linked to.
URL:
Remarks
  • Condl: provided a clear approach to each rwy is maintained for a minimum 20:1 glide slope and the transitional surface be maintained for a 7:1 slope.
  • Pub phone access at arpt.
  • For cd if una to ctc on fss freq, ctc kansas city artcc at 913-254-8508.
  • Actvt reil rwy 17 & 35; papi rwy 17 & 35; mril rwy 17/35 - ctaf.
  • Sat-sun on call
  • After hours fuel avbl by credit card or calling 785-483-6911.
  • 03/21 mkd with half barrels on posts painted black & yellow.
Comments
Leave a comment What was your experience like at this airport?